createdAt,value
2019-04-23T00:00:23.792Z,22.33
2019-04-23T00:03:01.761Z,19.93
2019-04-23T00:08:07.368Z,19.30
2019-04-23T00:10:28.610Z,31.47
2019-04-23T00:13:01.124Z,31.47
2019-04-23T00:15:51.938Z,32.63
2019-04-23T00:18:22.734Z,35.67
2019-04-23T00:20:47.955Z,30.00
2019-04-23T00:23:22.500Z,44.87
2019-04-23T00:25:53.752Z,36.73
2019-04-23T00:31:13.735Z,28.93
2019-04-23T00:33:26.982Z,27.67
2019-04-23T00:35:49.859Z,25.83
2019-04-23T00:38:18.344Z,20.27
2019-04-23T00:40:58.964Z,20.83
2019-04-23T00:46:02.339Z,17.07
2019-04-23T00:48:45.562Z,18.13
2019-04-23T00:51:02.189Z,15.53
2019-04-23T00:53:25.173Z,14.77
2019-04-23T00:56:03.901Z,18.77
2019-04-23T00:58:32.326Z,14.90
2019-04-23T01:01:00.372Z,11.53
2019-04-23T01:03:23.010Z,13.00
2019-04-23T01:05:52.301Z,13.03
2019-04-23T01:08:28.491Z,10.97
2019-04-23T01:11:18.137Z,10.70
2019-04-23T01:13:40.061Z,9.03
2019-04-23T01:16:06.061Z,12.27
2019-04-23T01:18:51.456Z,11.30
2019-04-23T01:21:15.716Z,11.17
2019-04-23T01:23:53.900Z,14.40
2019-04-23T01:26:35.502Z,12.67
2019-04-23T01:29:12.631Z,12.90
2019-04-23T01:31:47.534Z,11.40
2019-04-23T01:34:19.748Z,15.97
2019-04-23T01:36:41.211Z,14.90
2019-04-23T01:41:47.818Z,14.07
2019-04-23T01:44:14.410Z,14.23
2019-04-23T01:46:49.154Z,17.60
2019-04-23T01:49:14.916Z,18.43
2019-04-23T01:51:50.886Z,18.03
2019-04-23T01:54:19.169Z,19.90
2019-04-23T01:56:42.065Z,18.27
2019-04-23T01:59:18.304Z,30.50
2019-04-23T02:01:51.598Z,28.30
2019-04-23T02:04:22.891Z,24.67
2019-04-23T02:06:44.934Z,20.00
2019-04-23T02:09:16.887Z,20.27
2019-04-23T02:11:46.834Z,19.93
2019-04-23T02:14:18.374Z,21.87
2019-04-23T02:16:44.146Z,28.73
2019-04-23T02:19:17.063Z,22.37
2019-04-23T02:22:05.084Z,22.23
2019-04-23T02:24:41.679Z,16.30
2019-04-23T02:27:05.630Z,15.37
2019-04-23T02:29:43.553Z,17.40
2019-04-23T02:34:51.977Z,15.43
2019-04-23T02:37:19.235Z,18.87
2019-04-23T02:39:51.850Z,15.93
2019-04-23T02:42:47.119Z,15.47
2019-04-23T02:44:39.445Z,18.80
2019-04-23T02:47:17.553Z,14.67
2019-04-23T02:52:18.896Z,16.60
2019-04-23T02:57:13.948Z,18.43
2019-04-23T03:00:12.421Z,17.83
2019-04-23T03:04:49.936Z,16.13
2019-04-23T03:14:50.780Z,16.90
2019-04-23T03:17:15.087Z,16.90
2019-04-23T03:20:15.033Z,16.93
2019-04-23T03:22:55.981Z,14.70
2019-04-23T03:25:25.448Z,12.60
2019-04-23T03:27:41.910Z,15.13
2019-04-23T03:35:09.022Z,18.67
2019-04-23T03:38:10.539Z,20.93
2019-04-23T03:42:53.855Z,21.37
2019-04-23T03:45:25.290Z,21.57
2019-04-23T03:47:54.454Z,23.77
2019-04-23T03:50:29.879Z,21.93
2019-04-23T03:52:46.528Z,19.20
2019-04-23T03:55:29.801Z,19.07
2019-04-23T03:57:45.216Z,19.60
2019-04-23T04:00:32.599Z,18.20
2019-04-23T04:03:03.735Z,21.43
2019-04-23T04:05:32.830Z,20.20
2019-04-23T04:08:02.382Z,22.83
2019-04-23T04:10:16.666Z,22.53
2019-04-23T04:12:45.696Z,20.07
2019-04-23T04:15:48.902Z,21.73
2019-04-23T04:18:01.230Z,23.70
2019-04-23T04:20:33.042Z,22.27
2019-04-23T04:23:00.054Z,22.80
2019-04-23T04:25:30.735Z,18.77
2019-04-23T04:30:27.290Z,17.30
2019-04-23T04:38:10.750Z,16.13
2019-04-23T04:40:33.084Z,12.50
2019-04-23T04:47:45.375Z,11.60
2019-04-23T04:50:22.238Z,18.23
2019-04-23T04:53:01.539Z,12.97
2019-04-23T04:58:07.462Z,12.67
2019-04-23T05:00:32.597Z,13.73
2019-04-23T05:08:02.560Z,14.33
2019-04-23T05:13:11.998Z,15.90
2019-04-23T05:15:17.138Z,20.70
2019-04-23T05:18:17.296Z,17.77
2019-04-23T05:20:50.709Z,21.80
2019-04-23T05:23:22.857Z,24.53
2019-04-23T05:25:37.894Z,32.70
2019-04-23T05:30:50.097Z,23.50
2019-04-23T05:33:14.544Z,26.97
2019-04-23T05:38:19.003Z,16.67
2019-04-23T05:43:12.712Z,19.60
2019-04-23T05:45:44.589Z,23.27
2019-04-23T05:48:16.192Z,16.60
2019-04-23T05:53:13.387Z,14.17
2019-04-23T05:55:46.047Z,8.67
2019-04-23T05:58:16.926Z,9.23
2019-04-23T06:00:44.953Z,11.27
2019-04-23T06:03:30.590Z,11.67
2019-04-23T06:08:25.265Z,11.00
2019-04-23T06:10:57.218Z,8.65
2019-04-23T06:13:26.438Z,10.43
2019-04-23T06:15:52.091Z,8.88
2019-04-23T06:18:25.322Z,11.15
2019-04-23T06:20:55.865Z,11.12
2019-04-23T06:23:30.362Z,9.80
2019-04-23T06:26:19.862Z,10.03
2019-04-23T06:28:24.500Z,9.88
2019-04-23T06:30:54.470Z,13.28
2019-04-23T06:36:00.065Z,10.95
2019-04-23T06:40:53.972Z,8.30
2019-04-23T06:43:24.100Z,9.95
2019-04-23T06:45:49.519Z,9.60
2019-04-23T06:50:57.928Z,12.95
2019-04-23T06:53:22.799Z,11.10
2019-04-23T06:55:55.717Z,9.65
2019-04-23T06:58:33.925Z,8.18
2019-04-23T07:00:59.209Z,11.12
2019-04-23T07:03:31.757Z,9.08
2019-04-23T07:06:17.290Z,10.08
2019-04-23T07:08:56.330Z,9.10
2019-04-23T07:11:18.815Z,8.35
2019-04-23T07:13:50.232Z,9.68
2019-04-23T07:16:09.209Z,6.92
2019-04-23T07:18:36.488Z,10.75
2019-04-23T07:21:12.956Z,8.33
2019-04-23T07:23:44.939Z,9.35
2019-04-23T07:26:17.536Z,9.80
2019-04-23T07:28:48.527Z,9.30
2019-04-23T07:31:14.139Z,8.50
2019-04-23T07:33:43.950Z,6.45
2019-04-23T07:36:20.692Z,9.00
2019-04-23T07:39:01.271Z,11.50
2019-04-23T07:44:24.231Z,6.72
2019-04-23T07:47:16.296Z,7.47
2019-04-23T07:49:45.386Z,8.35
2019-04-23T07:52:24.316Z,10.28
2019-04-23T07:54:42.006Z,9.83
2019-04-23T07:57:13.508Z,7.30
2019-04-23T07:59:47.413Z,7.67
2019-04-23T08:02:13.919Z,11.40
2019-04-23T08:04:44.725Z,8.55
2019-04-23T08:07:09.203Z,8.38
2019-04-23T08:09:44.778Z,6.92
2019-04-23T08:12:13.837Z,12.23
2019-04-23T08:14:40.470Z,8.48
2019-04-23T08:17:08.759Z,6.42
2019-04-23T08:22:22.234Z,7.45
2019-04-23T08:24:45.257Z,9.13
2019-04-23T08:27:13.069Z,8.30
2019-04-23T08:29:36.151Z,7.95
2019-04-23T08:32:15.108Z,6.72
2019-04-23T08:37:15.287Z,8.53
2019-04-23T08:39:43.181Z,9.25
2019-04-23T08:42:33.417Z,7.67
2019-04-23T08:44:56.993Z,4.45
2019-04-23T08:52:18.241Z,10.38
2019-04-23T08:57:21.176Z,6.78
2019-04-23T08:59:47.303Z,9.43
2019-04-23T09:04:55.423Z,8.05
2019-04-23T09:07:21.676Z,8.38
2019-04-23T09:10:02.484Z,7.33
2019-04-23T09:12:27.011Z,7.03
2019-04-23T09:14:54.414Z,6.85
2019-04-23T09:17:27.806Z,9.83
2019-04-23T09:20:11.797Z,9.78
2019-04-23T09:24:55.558Z,12.70
2019-04-23T09:27:26.203Z,11.50
2019-04-23T09:35:14.343Z,14.83
2019-04-23T09:38:03.654Z,10.18
2019-04-23T09:40:54.876Z,16.02
2019-04-23T09:43:22.843Z,8.43
2019-04-23T09:45:48.460Z,6.83
2019-04-23T09:48:11.967Z,5.45
2019-04-23T09:50:50.920Z,15.45
2019-04-23T09:55:41.677Z,7.00
2019-04-23T10:00:45.037Z,10.88
2019-04-23T10:03:11.853Z,6.25
2019-04-23T10:05:33.965Z,5.80
2019-04-23T10:08:04.213Z,8.13
2019-04-23T10:10:23.832Z,6.40
2019-04-23T10:12:53.632Z,9.13
2019-04-23T10:15:26.680Z,8.40
2019-04-23T10:17:54.090Z,9.40
2019-04-23T10:20:22.670Z,8.30
2019-04-23T10:22:52.591Z,7.53
2019-04-23T10:25:22.659Z,7.42
2019-04-23T10:27:55.117Z,7.65
2019-04-23T10:30:21.760Z,9.13
2019-04-23T10:32:51.569Z,5.45
2019-04-23T10:35:30.402Z,9.03
2019-04-23T10:37:56.647Z,10.58
2019-04-23T10:40:26.279Z,10.53
2019-04-23T10:42:51.897Z,6.78
2019-04-23T10:45:44.789Z,8.05
2019-04-23T10:48:49.939Z,7.80
2019-04-23T10:51:33.902Z,8.93
2019-04-23T10:54:03.426Z,9.13
2019-04-23T10:56:34.734Z,5.85
2019-04-23T10:58:55.927Z,10.23
2019-04-23T11:01:31.937Z,9.53
2019-04-23T11:04:21.206Z,7.25
2019-04-23T11:06:41.368Z,8.48
2019-04-23T11:09:20.182Z,6.60
2019-04-23T11:11:34.490Z,8.75
2019-04-23T11:14:13.197Z,8.63
2019-04-23T11:21:42.474Z,10.63
2019-04-23T11:24:21.281Z,8.73
2019-04-23T11:26:44.598Z,10.70
2019-04-23T11:29:16.042Z,9.25
2019-04-23T11:31:41.468Z,9.70
2019-04-23T11:34:18.860Z,8.80
2019-04-23T11:37:07.819Z,8.35
2019-04-23T11:39:08.367Z,10.18
2019-04-23T11:42:08.601Z,7.25
2019-04-23T11:49:29.447Z,7.37
2019-04-23T11:59:16.325Z,8.58
2019-04-23T12:04:26.523Z,18.00
2019-04-23T12:07:00.208Z,10.15
2019-04-23T12:09:43.092Z,9.20
2019-04-23T12:12:09.532Z,12.53
2019-04-23T12:14:40.563Z,9.20
2019-04-23T12:17:26.405Z,9.68
2019-04-23T12:22:19.978Z,8.20
2019-04-23T12:25:02.959Z,7.47
2019-04-23T12:27:17.224Z,7.45
2019-04-23T12:40:15.542Z,8.13
2019-04-23T12:47:53.590Z,7.95
2019-04-23T12:50:40.725Z,9.93
2019-04-23T12:52:40.748Z,14.15
2019-04-23T12:55:19.579Z,11.55
2019-04-23T12:57:42.314Z,11.45
2019-04-23T13:00:19.140Z,12.85
2019-04-23T13:02:46.301Z,10.43
2019-04-23T13:10:15.871Z,5.65
2019-04-23T13:15:15.837Z,8.78
2019-04-23T13:20:18.832Z,13.53
2019-04-23T13:22:49.314Z,3.10
2019-04-23T13:25:19.967Z,7.40
2019-04-23T13:27:57.187Z,10.40
2019-04-23T13:30:23.215Z,9.40
2019-04-23T13:32:52.235Z,10.60
2019-04-23T13:37:54.787Z,7.72
2019-04-23T13:40:24.261Z,8.78
2019-04-23T13:42:52.528Z,8.13
2019-04-23T13:45:53.357Z,11.78
2019-04-23T13:47:53.242Z,7.30
2019-04-23T13:50:33.282Z,5.08
2019-04-23T13:53:07.812Z,14.07
2019-04-23T14:00:25.038Z,11.38
2019-04-23T14:02:49.369Z,18.98
2019-04-23T14:07:54.794Z,5.87
2019-04-23T14:10:29.851Z,3.67
2019-04-23T14:13:10.850Z,5.40
2019-04-23T14:15:34.430Z,6.95
2019-04-23T14:20:30.183Z,8.18
2019-04-23T14:23:09.368Z,8.43
2019-04-23T14:25:27.975Z,6.70
2019-04-23T14:28:07.293Z,9.35
2019-04-23T14:30:38.217Z,12.37
2019-04-23T14:33:03.554Z,9.13
2019-04-23T14:38:19.555Z,6.00
2019-04-23T14:40:40.043Z,9.63
2019-04-23T14:43:18.307Z,10.23
2019-04-23T14:45:42.566Z,4.35
2019-04-23T14:48:10.466Z,7.25
2019-04-23T14:58:18.185Z,7.05
2019-04-23T15:00:41.110Z,5.92
2019-04-23T15:03:20.228Z,7.40
2019-04-23T15:05:52.265Z,13.62
2019-04-23T15:08:15.558Z,10.05
2019-04-23T15:10:41.700Z,7.30
2019-04-23T15:13:08.665Z,8.38
2019-04-23T15:15:44.496Z,10.53
2019-04-23T15:18:27.853Z,11.88
2019-04-23T15:21:08.350Z,9.35
2019-04-23T15:26:37.271Z,7.97
2019-04-23T15:28:13.293Z,7.53
2019-04-23T15:30:57.125Z,8.90
2019-04-23T15:33:27.114Z,9.95
2019-04-23T15:36:09.406Z,11.45
2019-04-23T15:38:33.898Z,9.68
2019-04-23T15:40:55.458Z,9.93
2019-04-23T15:43:23.544Z,8.18
2019-04-23T15:45:52.577Z,6.92
2019-04-23T15:48:22.445Z,7.80
2019-04-23T15:50:51.608Z,10.78
2019-04-23T15:53:14.380Z,12.10
2019-04-23T15:56:02.668Z,10.95
2019-04-23T15:58:28.157Z,8.98
2019-04-23T16:01:21.844Z,10.90
2019-04-23T16:03:19.723Z,9.13
2019-04-23T16:05:48.773Z,14.50
2019-04-23T16:08:56.826Z,12.40
2019-04-23T16:11:32.829Z,15.43
2019-04-23T16:14:13.440Z,8.65
2019-04-23T16:16:28.622Z,8.10
2019-04-23T16:19:07.737Z,12.25
2019-04-23T16:21:47.312Z,10.85
2019-04-23T16:24:09.645Z,9.48
2019-04-23T16:26:37.315Z,10.20
2019-04-23T16:37:15.466Z,10.18
2019-04-23T16:39:21.975Z,13.00
2019-04-23T16:42:02.244Z,12.20
2019-04-23T16:44:29.931Z,11.10
2019-04-23T16:47:04.579Z,11.48
2019-04-23T16:49:36.387Z,10.68
2019-04-23T16:51:59.195Z,12.18
2019-04-23T16:54:32.906Z,11.93
2019-04-23T16:59:34.917Z,11.65
2019-04-23T17:06:57.822Z,9.50
2019-04-23T17:09:38.846Z,10.32
2019-04-23T17:12:07.701Z,10.40
2019-04-23T17:14:23.432Z,8.93
2019-04-23T17:16:53.378Z,10.70
2019-04-23T17:19:33.316Z,11.20
2019-04-23T17:21:59.971Z,11.22
2019-04-23T17:24:31.184Z,13.85
2019-04-23T17:29:29.434Z,10.82
2019-04-23T17:32:10.361Z,13.45
2019-04-23T17:35:09.905Z,10.72
2019-04-23T17:37:37.270Z,12.35
2019-04-23T17:43:01.686Z,13.38
2019-04-23T17:48:14.174Z,12.95
2019-04-23T17:50:52.816Z,13.98
2019-04-23T17:53:21.623Z,13.25
2019-04-23T17:56:02.451Z,12.43
2019-04-23T17:58:24.932Z,13.43
2019-04-23T18:01:05.575Z,13.55
2019-04-23T18:03:28.207Z,11.50
2019-04-23T18:06:03.670Z,12.47
2019-04-23T18:08:29.149Z,12.65
2019-04-23T18:10:59.461Z,13.68
2019-04-23T18:13:28.234Z,12.23
2019-04-23T18:16:02.810Z,12.45
2019-04-23T18:18:33.582Z,15.18
2019-04-23T18:21:08.461Z,12.33
2019-04-23T18:23:22.904Z,12.27
2019-04-23T18:26:01.877Z,13.23
2019-04-23T18:28:27.704Z,13.00
2019-04-23T18:31:11.331Z,10.03
2019-04-23T18:36:02.409Z,31.10
2019-04-23T18:38:57.079Z,15.40
2019-04-23T18:43:34.216Z,19.67
2019-04-23T18:48:44.118Z,13.90
2019-04-23T19:01:13.947Z,13.53
2019-04-23T19:06:37.664Z,13.90
2019-04-23T19:09:23.461Z,14.50
2019-04-23T19:12:26.715Z,14.23
2019-04-23T19:19:46.618Z,12.17
2019-04-23T19:24:44.882Z,13.33
2019-04-23T19:32:14.407Z,13.80
2019-04-23T19:37:04.165Z,12.77
2019-04-23T19:39:47.827Z,14.20
2019-04-23T19:44:41.170Z,14.23
2019-04-23T19:47:25.716Z,13.17
2019-04-23T19:49:36.989Z,13.80
2019-04-23T19:54:52.576Z,14.33
2019-04-23T19:57:22.234Z,15.13
2019-04-23T19:59:44.773Z,13.80
2019-04-23T20:02:37.191Z,13.80
2019-04-23T20:04:41.091Z,15.77
2019-04-23T20:09:50.810Z,12.77
2019-04-23T20:12:07.759Z,13.50
2019-04-23T20:19:44.136Z,15.33
2019-04-23T20:22:15.831Z,14.67
2019-04-23T20:32:03.176Z,14.73
2019-04-23T20:34:56.632Z,17.83
2019-04-23T20:37:26.378Z,14.93
2019-04-23T20:39:55.086Z,13.60
2019-04-23T20:42:18.040Z,15.53
2019-04-23T20:45:04.801Z,14.37
2019-04-23T20:47:45.444Z,14.30
2019-04-23T20:49:50.472Z,14.83
2019-04-23T20:52:34.074Z,13.80
2019-04-23T21:00:01.713Z,15.60
2019-04-23T21:02:54.730Z,14.53
2019-04-23T21:07:50.428Z,14.67
2019-04-23T21:10:40.347Z,18.47
2019-04-23T21:17:51.529Z,14.60
2019-04-23T21:20:18.287Z,14.57
2019-04-23T21:22:41.512Z,17.13
2019-04-23T21:25:22.667Z,16.23
2019-04-23T21:28:06.817Z,14.47
2019-04-23T21:30:08.968Z,19.00
2019-04-23T21:32:52.592Z,15.90
2019-04-23T21:35:16.275Z,17.73
2019-04-23T21:37:54.012Z,17.33
2019-04-23T21:41:05.533Z,16.03
2019-04-23T21:43:21.829Z,16.63
2019-04-23T21:45:54.549Z,16.50
2019-04-23T21:48:15.663Z,16.83
2019-04-23T21:53:14.761Z,17.60
2019-04-23T21:55:54.530Z,15.70
2019-04-23T21:58:17.279Z,19.10
2019-04-23T22:00:53.577Z,18.90
2019-04-23T22:03:19.525Z,17.10
2019-04-23T22:05:52.822Z,18.57
2019-04-23T22:08:10.351Z,19.53
2019-04-23T22:10:59.943Z,19.53
2019-04-23T22:13:20.626Z,20.00
2019-04-23T22:15:54.693Z,25.10
2019-04-23T22:18:16.149Z,28.53
2019-04-23T22:20:51.329Z,31.03
2019-04-23T22:25:56.443Z,30.43
2019-04-23T22:28:16.125Z,31.77
2019-04-23T22:31:04.072Z,33.80
2019-04-23T22:33:18.130Z,34.47
2019-04-23T22:36:01.388Z,30.83
2019-04-23T22:40:52.852Z,34.53
2019-04-23T22:43:20.585Z,35.90
2019-04-23T22:45:53.381Z,36.40
2019-04-23T22:48:13.901Z,39.13
2019-04-23T22:50:59.339Z,36.97
2019-04-23T22:53:11.139Z,42.50
2019-04-23T22:56:01.871Z,41.13
2019-04-23T22:58:11.010Z,41.57
2019-04-23T23:00:55.657Z,31.77
2019-04-23T23:03:22.740Z,33.23
2019-04-23T23:08:20.902Z,32.00
2019-04-23T23:10:57.537Z,37.23
2019-04-23T23:13:35.780Z,33.73
2019-04-23T23:16:10.505Z,31.17
2019-04-23T23:20:59.559Z,35.20
2019-04-23T23:23:21.486Z,32.13
2019-04-23T23:28:26.911Z,20.63
2019-04-23T23:31:04.807Z,17.73
2019-04-23T23:33:24.666Z,17.43
2019-04-23T23:36:03.503Z,18.93
2019-04-23T23:38:36.688Z,16.87
2019-04-23T23:46:18.611Z,18.40
2019-04-23T23:48:29.500Z,19.13
2019-04-23T23:51:11.445Z,23.73
2019-04-23T23:56:07.371Z,25.57
2019-04-23T23:58:45.808Z,23.57
